Rockport, Maine
Current Conditions -  °F | °C
As of 1:55 PM on Wednesday 26 Nov 2014 (Local Time) from KRKD Reporting Station
Overcast Overcast  
Wind Chill: 29°   Ceiling: 600
Heat Index: 34°   Visibility: 1.5mi
Dew Point: 32°   Wind: 6mph
Humidity: 93%   Direction: 40°NE
Pressure: 30.15"   Gusts: NA
Location:  44.18°N, 69.08°W
Report Text: KRKD 261855Z AUTO 04005KT 1 1/2SM OVC006 01/00 A3015 RMK AO1 P0006
Loading
Personal Weather Stations






























Interactive Weather Map New forecast layout! Learn more

10-Day Weather Forecast

Advertisements
Track Severe Weather on mobile